createdAt,value
2022-10-19T00:00:34.439Z,13.08
2022-10-19T00:01:38.678Z,13.08
2022-10-19T00:02:42.876Z,13.07
2022-10-19T00:03:47.163Z,13.08
2022-10-19T00:04:51.431Z,13.09
2022-10-19T00:05:55.774Z,13.08
2022-10-19T00:07:00.116Z,13.08
2022-10-19T00:08:04.432Z,13.08
2022-10-19T00:09:08.696Z,13.08
2022-10-19T00:10:12.966Z,13.08
2022-10-19T00:11:17.280Z,13.08
2022-10-19T00:12:21.545Z,13.08
2022-10-19T00:13:25.837Z,13.09
2022-10-19T00:14:30.107Z,13.10
2022-10-19T00:15:34.338Z,13.09
2022-10-19T00:16:38.722Z,13.08
2022-10-19T00:17:42.965Z,13.08
2022-10-19T00:18:47.165Z,13.07
2022-10-19T00:19:51.472Z,13.06
2022-10-19T00:20:55.818Z,13.06
2022-10-19T00:22:00.074Z,13.06
2022-10-19T00:23:04.387Z,13.05
2022-10-19T00:24:08.707Z,13.06
2022-10-19T00:25:12.970Z,13.07
2022-10-19T00:26:17.239Z,13.06
2022-10-19T00:27:21.505Z,13.06
2022-10-19T00:28:25.930Z,13.06
2022-10-19T00:29:30.052Z,13.05
2022-10-19T00:30:34.335Z,13.02
2022-10-19T00:31:38.645Z,12.99
2022-10-19T00:32:42.861Z,12.95
2022-10-19T00:33:47.156Z,12.93
2022-10-19T00:34:51.438Z,12.92
2022-10-19T00:35:55.757Z,12.91
2022-10-19T00:37:00.056Z,12.90
2022-10-19T00:38:04.293Z,12.88
2022-10-19T00:39:08.470Z,12.87
2022-10-19T00:40:12.804Z,12.87
2022-10-19T00:41:17.152Z,12.86
2022-10-19T00:42:21.393Z,12.85
2022-10-19T00:43:25.688Z,12.83
2022-10-19T00:44:30.052Z,12.82
2022-10-19T00:45:34.293Z,12.82
2022-10-19T00:46:38.575Z,12.80
2022-10-19T00:47:42.814Z,12.79
2022-10-19T00:48:47.059Z,12.76
2022-10-19T00:49:51.444Z,12.75
2022-10-19T00:50:55.679Z,12.73
2022-10-19T00:51:59.922Z,12.71
2022-10-19T00:53:04.266Z,12.70
2022-10-19T00:54:08.477Z,12.67
2022-10-19T00:55:12.868Z,12.65
2022-10-19T00:56:17.078Z,12.63
2022-10-19T00:57:21.372Z,12.61
2022-10-19T00:58:25.589Z,12.60
2022-10-19T00:59:29.907Z,12.58
2022-10-19T01:00:34.263Z,12.57
2022-10-19T01:01:38.449Z,12.56
2022-10-19T01:02:42.783Z,12.55
2022-10-19T01:03:47.102Z,12.55
2022-10-19T01:04:51.302Z,12.56
2022-10-19T01:05:55.580Z,12.56
2022-10-19T01:06:59.880Z,12.55
2022-10-19T01:08:04.101Z,12.55
2022-10-19T01:09:08.386Z,12.56
2022-10-19T01:10:12.635Z,12.58
2022-10-19T01:11:16.945Z,12.58
2022-10-19T01:12:21.230Z,12.59
2022-10-19T01:13:25.536Z,12.62
2022-10-19T01:14:29.789Z,12.63
2022-10-19T01:15:34.170Z,12.62
2022-10-19T01:16:38.477Z,12.60
2022-10-19T01:17:42.774Z,12.59
2022-10-19T01:18:47.046Z,12.60
2022-10-19T01:19:51.221Z,12.59
2022-10-19T01:20:55.643Z,12.58
2022-10-19T01:21:59.854Z,12.55
2022-10-19T01:23:04.131Z,12.53
2022-10-19T01:24:08.418Z,12.51
2022-10-19T01:25:12.538Z,12.49
2022-10-19T01:26:16.949Z,12.48
2022-10-19T01:27:21.168Z,12.46
2022-10-19T01:28:25.553Z,12.44
2022-10-19T01:29:29.735Z,12.43
2022-10-19T01:30:34.014Z,12.41
2022-10-19T01:31:38.261Z,12.40
2022-10-19T01:32:42.579Z,12.37
2022-10-19T01:33:46.910Z,12.37
2022-10-19T01:34:51.052Z,12.35
2022-10-19T01:35:55.306Z,12.33
2022-10-19T01:36:59.570Z,12.32
2022-10-19T01:38:03.812Z,12.32
2022-10-19T01:39:08.117Z,12.33
2022-10-19T01:40:12.360Z,12.35
2022-10-19T01:41:16.650Z,12.36
2022-10-19T01:42:20.894Z,12.37
2022-10-19T01:43:25.190Z,12.37
2022-10-19T01:44:29.543Z,12.37
2022-10-19T01:45:33.814Z,12.37
2022-10-19T01:46:38.064Z,12.37
2022-10-19T01:47:42.434Z,12.37
2022-10-19T01:48:46.730Z,12.39
2022-10-19T01:49:51.010Z,12.41
2022-10-19T01:50:55.232Z,12.44
2022-10-19T01:51:59.585Z,12.47
2022-10-19T01:53:03.799Z,12.51
2022-10-19T01:54:08.139Z,12.54
2022-10-19T01:55:12.488Z,12.56
2022-10-19T01:56:16.695Z,12.58
2022-10-19T01:57:21.045Z,12.60
2022-10-19T01:58:25.279Z,12.61
2022-10-19T01:59:29.644Z,12.62
2022-10-19T02:00:33.900Z,12.65
2022-10-19T02:01:38.336Z,12.68
2022-10-19T02:02:42.500Z,12.71
2022-10-19T02:03:46.859Z,12.74
2022-10-19T02:04:51.094Z,12.76
2022-10-19T02:05:55.369Z,12.80
2022-10-19T02:06:59.744Z,12.82
2022-10-19T02:08:03.987Z,12.84
2022-10-19T02:09:08.248Z,12.86
2022-10-19T02:11:16.867Z,12.90
2022-10-19T02:12:21.126Z,12.91
2022-10-19T02:13:25.446Z,12.92
2022-10-19T02:14:29.703Z,12.91
2022-10-19T02:15:34.012Z,12.91
2022-10-19T02:16:38.309Z,12.92
2022-10-19T02:17:42.692Z,12.91
2022-10-19T02:18:46.899Z,12.90
2022-10-19T02:19:51.154Z,12.88
2022-10-19T02:20:55.440Z,12.87
2022-10-19T02:21:59.784Z,12.84
2022-10-19T02:23:04.195Z,12.82
2022-10-19T02:24:08.420Z,12.80
2022-10-19T02:25:12.704Z,12.78
2022-10-19T02:26:16.945Z,12.77
2022-10-19T02:27:21.283Z,12.77
2022-10-19T02:29:29.866Z,12.75
2022-10-19T02:30:34.121Z,12.74
2022-10-19T02:31:38.467Z,12.73
2022-10-19T02:32:42.771Z,12.72
2022-10-19T02:33:47.048Z,12.71
2022-10-19T02:34:51.366Z,12.71
2022-10-19T02:35:55.662Z,12.72
2022-10-19T02:36:59.903Z,12.73
2022-10-19T02:38:04.183Z,12.74
2022-10-19T02:39:08.488Z,12.74
2022-10-19T02:40:12.751Z,12.74
2022-10-19T02:41:17.107Z,12.73
2022-10-19T02:42:21.317Z,12.73
2022-10-19T02:43:25.607Z,12.72
2022-10-19T02:44:29.877Z,12.72
2022-10-19T02:45:34.114Z,12.73
2022-10-19T02:46:38.430Z,12.74
2022-10-19T02:47:42.702Z,12.75
2022-10-19T02:48:46.901Z,12.76
2022-10-19T02:49:51.266Z,12.76
2022-10-19T02:50:55.576Z,12.76
2022-10-19T02:51:59.841Z,12.77
2022-10-19T02:53:04.146Z,12.79
2022-10-19T02:54:08.517Z,12.81
2022-10-19T02:55:12.670Z,12.83
2022-10-19T02:56:17.069Z,12.84
2022-10-19T02:57:21.425Z,12.85
2022-10-19T02:58:25.694Z,12.85
2022-10-19T02:59:29.949Z,12.85
2022-10-19T03:00:34.296Z,12.84
2022-10-19T03:01:38.498Z,12.83
2022-10-19T03:02:42.781Z,12.84
2022-10-19T03:03:47.050Z,12.85
2022-10-19T03:04:51.345Z,12.87
2022-10-19T03:05:55.541Z,12.87
2022-10-19T03:06:59.924Z,12.85
2022-10-19T03:08:04.165Z,12.84
2022-10-19T03:09:08.500Z,12.82
2022-10-19T03:10:12.781Z,12.81
2022-10-19T03:11:17.014Z,12.80
2022-10-19T03:12:21.334Z,12.79
2022-10-19T03:13:25.576Z,12.77
2022-10-19T03:14:30.016Z,12.76
2022-10-19T03:15:34.238Z,12.76
2022-10-19T03:16:38.585Z,12.75
2022-10-19T03:17:42.858Z,12.75
2022-10-19T03:18:47.115Z,12.74
2022-10-19T03:19:51.382Z,12.75
2022-10-19T03:20:58.875Z,12.76
2022-10-19T03:21:59.985Z,12.76
2022-10-19T03:23:04.334Z,12.77
2022-10-19T03:24:08.663Z,12.78
2022-10-19T03:25:12.883Z,12.79
2022-10-19T03:26:17.149Z,12.79
2022-10-19T03:27:21.434Z,12.80
2022-10-19T03:28:25.830Z,12.81
2022-10-19T03:29:30.002Z,12.82
2022-10-19T03:30:34.264Z,12.83
2022-10-19T03:31:38.638Z,12.83
2022-10-19T03:32:42.789Z,12.84
2022-10-19T03:33:47.092Z,12.84
2022-10-19T03:34:51.374Z,12.86
2022-10-19T03:35:55.692Z,12.87
2022-10-19T03:36:59.944Z,12.87
2022-10-19T03:38:04.278Z,12.87
2022-10-19T03:39:08.568Z,12.87
2022-10-19T03:40:12.840Z,12.87
2022-10-19T03:41:17.212Z,12.87
2022-10-19T03:42:21.418Z,12.86
2022-10-19T03:43:25.697Z,12.86
2022-10-19T03:44:29.974Z,12.86
2022-10-19T03:45:34.284Z,12.87
2022-10-19T03:46:38.576Z,12.88
2022-10-19T03:47:42.834Z,12.88
2022-10-19T03:48:47.135Z,12.89
2022-10-19T03:49:51.400Z,12.90
2022-10-19T03:50:55.807Z,12.90
2022-10-19T03:52:00.025Z,12.90
2022-10-19T03:53:04.362Z,12.89
2022-10-19T03:54:08.629Z,12.88
2022-10-19T03:55:12.883Z,12.88
2022-10-19T03:56:17.177Z,12.87
2022-10-19T03:57:21.440Z,12.86
2022-10-19T03:58:25.744Z,12.86
2022-10-19T03:59:30.014Z,12.85
2022-10-19T04:00:34.268Z,12.84
2022-10-19T04:01:38.518Z,12.85
2022-10-19T04:02:42.812Z,12.86
2022-10-19T04:03:47.221Z,12.86
2022-10-19T04:04:51.451Z,12.86
2022-10-19T04:05:55.711Z,12.86
2022-10-19T04:06:59.984Z,12.86
2022-10-19T04:08:04.271Z,12.86
2022-10-19T04:09:08.586Z,12.86
2022-10-19T04:10:12.909Z,12.87
2022-10-19T04:11:20.153Z,12.87
2022-10-19T04:12:23.532Z,12.87
2022-10-19T04:13:27.937Z,12.86
2022-10-19T04:14:39.254Z,12.86
2022-10-19T04:15:36.465Z,12.86
2022-10-19T04:16:40.716Z,12.85
2022-10-19T04:17:48.511Z,12.85
2022-10-19T04:18:49.263Z,12.85
2022-10-19T04:19:53.601Z,12.85
2022-10-19T04:20:57.880Z,12.85
2022-10-19T04:22:02.207Z,12.85
2022-10-19T04:23:06.482Z,12.85
2022-10-19T04:24:10.752Z,12.86
2022-10-19T04:25:14.995Z,12.87
2022-10-19T04:26:19.323Z,12.88
2022-10-19T04:27:23.590Z,12.88
2022-10-19T04:28:27.901Z,12.88
2022-10-19T04:29:32.127Z,12.88
2022-10-19T04:30:36.365Z,12.87
2022-10-19T04:31:40.708Z,12.87
2022-10-19T04:32:44.914Z,12.86
2022-10-19T04:33:49.282Z,12.85
2022-10-19T04:34:53.538Z,12.84
2022-10-19T04:35:57.764Z,12.83
2022-10-19T04:37:02.105Z,12.83
2022-10-19T04:38:06.179Z,12.82
2022-10-19T04:39:10.608Z,12.80
2022-10-19T04:40:15.069Z,12.79
2022-10-19T04:41:19.116Z,12.76
2022-10-19T04:42:23.412Z,12.75
2022-10-19T04:43:27.671Z,12.74
2022-10-19T04:44:32.084Z,12.73
2022-10-19T04:45:36.244Z,12.72
2022-10-19T04:46:40.406Z,12.70
2022-10-19T04:47:44.696Z,12.69
2022-10-19T04:48:48.956Z,12.67
2022-10-19T04:49:53.151Z,12.65
2022-10-19T04:50:57.479Z,12.62
2022-10-19T04:52:01.739Z,12.60
2022-10-19T04:53:05.986Z,12.58
2022-10-19T04:54:10.314Z,12.56
2022-10-19T04:55:14.557Z,12.55
2022-10-19T04:56:18.708Z,12.55
2022-10-19T04:57:23.053Z,12.55
2022-10-19T04:58:27.352Z,12.55
2022-10-19T04:59:31.603Z,12.54
2022-10-19T05:00:36.027Z,12.53
2022-10-19T05:01:43.308Z,12.53
2022-10-19T05:02:44.433Z,12.53
2022-10-19T05:03:48.781Z,12.54
2022-10-19T05:04:52.929Z,12.54
2022-10-19T05:05:57.301Z,12.55
2022-10-19T05:07:01.469Z,12.55
2022-10-19T05:08:05.667Z,12.55
2022-10-19T05:09:09.857Z,12.55
2022-10-19T05:10:14.211Z,12.56
2022-10-19T05:11:18.515Z,12.57
2022-10-19T05:12:22.779Z,12.58
2022-10-19T05:13:27.067Z,12.59
2022-10-19T05:14:31.309Z,12.60
2022-10-19T05:15:35.574Z,12.60
2022-10-19T05:16:39.922Z,12.60
2022-10-19T05:17:44.129Z,12.59
2022-10-19T05:18:48.391Z,12.59
2022-10-19T05:19:52.673Z,12.59
2022-10-19T05:20:56.926Z,12.59
2022-10-19T05:22:01.215Z,12.58
2022-10-19T05:23:07.278Z,12.57
2022-10-19T05:24:09.712Z,12.56
2022-10-19T05:25:14.006Z,12.55
2022-10-19T05:26:18.236Z,12.54
2022-10-19T05:27:22.491Z,12.54
2022-10-19T05:28:26.764Z,12.54
2022-10-19T05:29:31.012Z,12.53
2022-10-19T05:30:35.378Z,12.52
2022-10-19T05:31:39.567Z,12.49
2022-10-19T05:32:43.776Z,12.47
2022-10-19T05:33:48.069Z,12.45
2022-10-19T05:34:55.359Z,12.42
2022-10-19T05:35:58.651Z,12.40
2022-10-19T05:37:02.923Z,12.40
2022-10-19T05:38:07.118Z,12.41
2022-10-19T05:39:11.522Z,12.41
2022-10-19T05:40:15.757Z,12.41
2022-10-19T05:41:20.029Z,12.40
2022-10-19T05:42:24.335Z,12.39
2022-10-19T05:43:28.654Z,12.38
2022-10-19T05:44:33.044Z,12.39
2022-10-19T05:45:37.337Z,12.38
2022-10-19T05:46:41.539Z,12.36
2022-10-19T05:47:45.868Z,12.34
2022-10-19T05:48:50.160Z,12.32
2022-10-19T05:49:54.408Z,12.31
2022-10-19T05:50:58.554Z,12.30
2022-10-19T05:52:02.860Z,12.28
2022-10-19T05:53:07.160Z,12.27
2022-10-19T05:54:11.409Z,12.25
2022-10-19T05:55:15.620Z,12.24
2022-10-19T05:56:19.904Z,12.23
2022-10-19T05:57:24.216Z,12.23
2022-10-19T05:58:28.512Z,12.23
2022-10-19T05:59:32.823Z,12.23
2022-10-19T06:00:37.055Z,12.23
2022-10-19T06:01:41.484Z,12.23
2022-10-19T06:02:45.631Z,12.22
2022-10-19T06:03:49.938Z,12.22
2022-10-19T06:04:54.187Z,12.23
2022-10-19T06:05:58.441Z,12.24
2022-10-19T06:07:02.677Z,12.25
2022-10-19T06:08:06.954Z,12.25
2022-10-19T06:09:11.230Z,12.26
2022-10-19T06:10:15.461Z,12.26
2022-10-19T06:11:19.757Z,12.26
2022-10-19T06:12:25.114Z,12.27
2022-10-19T06:13:28.378Z,12.28
2022-10-19T06:14:32.708Z,12.29
2022-10-19T06:15:36.862Z,12.30
2022-10-19T06:16:41.122Z,12.31
2022-10-19T06:17:45.507Z,12.31
2022-10-19T06:18:49.708Z,12.31
2022-10-19T06:19:53.980Z,12.31
2022-10-19T06:20:58.356Z,12.30
2022-10-19T06:22:02.599Z,12.30
2022-10-19T06:23:06.856Z,12.31
2022-10-19T06:24:11.117Z,12.32
2022-10-19T06:25:18.063Z,12.33
2022-10-19T06:26:19.679Z,12.34
2022-10-19T06:27:24.058Z,12.35
2022-10-19T06:28:28.268Z,12.37
2022-10-19T06:29:32.493Z,12.37
2022-10-19T06:30:36.850Z,12.37
2022-10-19T06:31:41.048Z,12.36
2022-10-19T06:32:45.395Z,12.36
2022-10-19T06:33:49.877Z,12.35
2022-10-19T06:34:56.415Z,12.34
2022-10-19T06:35:58.186Z,12.33
2022-10-19T06:37:02.424Z,12.33
2022-10-19T06:38:06.687Z,12.33
2022-10-19T06:39:10.956Z,12.34
2022-10-19T06:40:15.502Z,12.35
2022-10-19T06:41:19.564Z,12.36
2022-10-19T06:42:23.853Z,12.36
2022-10-19T06:43:28.170Z,12.36
2022-10-19T06:44:32.424Z,12.36
2022-10-19T06:45:36.697Z,12.37
2022-10-19T06:46:40.944Z,12.37
2022-10-19T06:47:45.209Z,12.37
2022-10-19T06:48:49.557Z,12.38
2022-10-19T06:49:53.810Z,12.37
2022-10-19T06:50:58.082Z,12.37
2022-10-19T06:52:02.328Z,12.37
2022-10-19T06:53:06.550Z,12.37
2022-10-19T06:54:10.807Z,12.38
2022-10-19T06:55:15.151Z,12.38
2022-10-19T06:56:19.442Z,12.40
2022-10-19T06:57:23.661Z,12.42
2022-10-19T06:58:27.856Z,12.43
2022-10-19T06:59:32.143Z,12.43
2022-10-19T07:00:36.491Z,12.43
2022-10-19T07:01:40.767Z,12.44
2022-10-19T07:02:45.033Z,12.45
2022-10-19T07:03:49.393Z,12.46
2022-10-19T07:04:53.705Z,12.46
2022-10-19T07:05:57.950Z,12.45
2022-10-19T07:07:02.290Z,12.45
2022-10-19T07:08:06.447Z,12.44
2022-10-19T07:09:10.716Z,12.44
2022-10-19T07:10:14.940Z,12.42
2022-10-19T07:11:19.204Z,12.41
2022-10-19T07:12:23.458Z,12.40
2022-10-19T07:13:27.725Z,12.40
2022-10-19T07:14:32.016Z,12.39
2022-10-19T07:15:36.241Z,12.40
2022-10-19T07:16:40.530Z,12.40
2022-10-19T07:17:44.786Z,12.41
2022-10-19T07:18:49.026Z,12.42
2022-10-19T07:19:53.401Z,12.45
2022-10-19T07:20:57.680Z,12.47
2022-10-19T07:22:01.908Z,12.49
2022-10-19T07:23:06.230Z,12.52
2022-10-19T07:24:10.625Z,12.55
2022-10-19T07:25:14.923Z,12.56
2022-10-19T07:26:19.019Z,12.57
2022-10-19T07:27:23.451Z,12.60
2022-10-19T07:28:27.656Z,12.62
2022-10-19T07:29:31.978Z,12.63
2022-10-19T07:30:36.275Z,12.64
2022-10-19T07:31:40.485Z,12.66
2022-10-19T07:32:47.037Z,12.68
2022-10-19T07:33:49.100Z,12.72
2022-10-19T07:34:53.361Z,12.76
2022-10-19T07:36:00.614Z,12.79
2022-10-19T07:37:04.017Z,12.82
2022-10-19T07:38:08.275Z,12.85
2022-10-19T07:39:12.551Z,12.88
2022-10-19T07:40:16.950Z,12.91
2022-10-19T07:41:21.228Z,12.95
2022-10-19T07:42:25.467Z,13.00
2022-10-19T07:43:29.864Z,13.05
2022-10-19T07:44:34.071Z,13.10
2022-10-19T07:45:38.384Z,13.13
2022-10-19T07:46:42.635Z,13.15
2022-10-19T07:47:46.903Z,13.13
2022-10-19T07:48:51.316Z,13.13
2022-10-19T07:49:55.497Z,13.12
2022-10-19T07:50:59.816Z,13.11
2022-10-19T07:52:04.010Z,13.09
2022-10-19T07:53:08.336Z,13.06
2022-10-19T07:54:12.571Z,13.02
2022-10-19T07:55:16.871Z,12.99
2022-10-19T07:56:21.043Z,12.95
2022-10-19T07:57:25.369Z,12.91
2022-10-19T07:58:29.641Z,12.89
2022-10-19T07:59:33.874Z,12.88
2022-10-19T08:00:41.227Z,12.87
2022-10-19T08:01:42.558Z,12.88
2022-10-19T08:03:05.123Z,12.88
2022-10-19T08:05:01.217Z,12.87
2022-10-19T08:05:59.446Z,12.88
2022-10-19T08:07:03.692Z,12.89
2022-10-19T08:08:07.896Z,12.89
2022-10-19T08:09:27.751Z,12.90
2022-10-19T08:10:16.530Z,12.91
2022-10-19T08:11:20.760Z,12.93
2022-10-19T08:12:25.112Z,12.94
2022-10-19T08:13:29.416Z,12.93
2022-10-19T08:14:33.644Z,12.90
2022-10-19T08:15:38.030Z,12.88
2022-10-19T08:16:42.255Z,12.86
2022-10-19T08:17:46.624Z,12.85
2022-10-19T08:18:50.864Z,12.82
2022-10-19T08:19:55.212Z,12.83
2022-10-19T08:20:59.440Z,12.83
2022-10-19T08:22:03.651Z,12.78
2022-10-19T08:23:07.919Z,12.70
2022-10-19T08:24:12.207Z,12.67
2022-10-19T08:25:16.622Z,12.66
2022-10-19T08:26:20.809Z,12.68
2022-10-19T08:27:25.264Z,12.69
2022-10-19T08:28:29.393Z,12.67
2022-10-19T08:29:33.682Z,12.68
2022-10-19T08:30:37.953Z,12.69
2022-10-19T08:31:42.285Z,12.68
2022-10-19T08:32:46.541Z,12.71
2022-10-19T08:33:50.811Z,12.70
2022-10-19T08:34:55.042Z,12.72
2022-10-19T08:35:59.307Z,12.46
2022-10-19T08:37:10.319Z,12.32
2022-10-19T08:38:07.854Z,12.25
2022-10-19T08:39:12.148Z,12.12
2022-10-19T08:40:16.514Z,12.12
2022-10-19T08:41:20.764Z,12.17
2022-10-19T08:42:25.009Z,12.10
2022-10-19T08:43:29.244Z,12.09
2022-10-19T08:44:33.549Z,12.03
2022-10-19T08:45:37.860Z,12.04
2022-10-19T08:46:42.117Z,12.13
2022-10-19T08:47:46.390Z,12.23
2022-10-19T08:48:50.661Z,12.30
2022-10-19T08:49:54.921Z,12.30
2022-10-19T08:50:59.186Z,12.33
2022-10-19T08:52:03.470Z,12.40
2022-10-19T08:53:07.827Z,12.51
2022-10-19T08:54:12.064Z,12.61
2022-10-19T08:55:19.659Z,12.74
2022-10-19T08:56:38.970Z,12.77
2022-10-19T08:57:24.968Z,12.71
2022-10-19T08:58:29.171Z,12.62
2022-10-19T08:59:33.438Z,12.55
2022-10-19T09:00:37.784Z,12.59
2022-10-19T09:01:41.952Z,12.59
2022-10-19T09:02:46.362Z,12.49
2022-10-19T09:03:57.986Z,12.35
2022-10-19T09:04:54.988Z,12.27
2022-10-19T09:05:59.225Z,12.22
2022-10-19T09:07:03.414Z,12.19
2022-10-19T09:08:07.846Z,12.21
2022-10-19T09:09:12.067Z,12.24
2022-10-19T09:10:16.359Z,12.20
2022-10-19T09:11:20.620Z,12.17
2022-10-19T09:12:24.911Z,12.25
2022-10-19T09:13:36.495Z,12.39
2022-10-19T09:14:33.512Z,12.48
2022-10-19T09:15:37.767Z,12.51
2022-10-19T09:16:42.075Z,12.46
2022-10-19T09:17:46.356Z,12.43
2022-10-19T09:18:50.803Z,12.41
2022-10-19T09:19:54.935Z,12.32
2022-10-19T09:20:59.298Z,12.26
2022-10-19T09:22:03.532Z,12.25
2022-10-19T09:23:13.032Z,12.21
2022-10-19T09:24:12.101Z,12.22
2022-10-19T09:25:16.336Z,12.17
2022-10-19T09:26:20.629Z,12.13
2022-10-19T09:27:24.900Z,12.03
2022-10-19T09:28:33.989Z,11.94
2022-10-19T09:29:33.618Z,11.98
2022-10-19T09:30:37.810Z,11.98
2022-10-19T09:31:42.125Z,11.97
2022-10-19T09:32:46.381Z,11.87
2022-10-19T09:33:50.570Z,11.87
2022-10-19T09:34:54.919Z,11.96
2022-10-19T09:35:59.214Z,11.94
2022-10-19T09:37:03.582Z,12.07
2022-10-19T09:38:07.777Z,12.19
2022-10-19T09:39:12.066Z,12.36
2022-10-19T09:40:16.322Z,12.44
2022-10-19T09:41:20.617Z,12.46
2022-10-19T09:42:24.883Z,12.37
2022-10-19T09:43:29.137Z,12.20
2022-10-19T09:44:33.510Z,12.13
2022-10-19T09:45:37.786Z,12.04
2022-10-19T09:46:42.150Z,12.00
2022-10-19T09:47:46.484Z,11.97
2022-10-19T09:48:50.747Z,11.84
2022-10-19T09:49:54.970Z,11.74
2022-10-19T09:50:59.302Z,11.74
2022-10-19T09:52:03.553Z,11.74
2022-10-19T09:53:07.865Z,11.81
2022-10-19T09:54:12.117Z,11.92
2022-10-19T09:55:16.419Z,11.96
2022-10-19T09:56:20.781Z,11.92
2022-10-19T09:57:24.991Z,11.90
2022-10-19T09:58:32.866Z,11.97
2022-10-19T09:59:33.530Z,12.03
2022-10-19T10:00:37.912Z,11.96
2022-10-19T10:01:43.521Z,11.97
2022-10-19T10:02:46.537Z,12.04
2022-10-19T10:03:53.836Z,12.09
2022-10-19T10:04:55.170Z,11.95
2022-10-19T10:05:59.424Z,11.76
2022-10-19T10:07:03.849Z,11.72
2022-10-19T10:08:08.022Z,11.72
2022-10-19T10:09:12.292Z,11.77
2022-10-19T10:10:16.605Z,11.78
2022-10-19T10:11:21.024Z,11.82
2022-10-19T10:12:25.365Z,11.81
2022-10-19T10:13:29.610Z,11.76
2022-10-19T10:14:33.880Z,11.71
2022-10-19T10:15:38.260Z,11.71
2022-10-19T10:16:42.500Z,11.69
2022-10-19T10:17:46.825Z,11.70
2022-10-19T10:18:51.135Z,11.75
2022-10-19T10:19:55.393Z,11.70
2022-10-19T10:20:59.662Z,11.65
2022-10-19T10:22:03.907Z,11.61
2022-10-19T10:23:08.238Z,11.57
2022-10-19T10:24:12.596Z,11.53
2022-10-19T10:25:16.805Z,11.55
2022-10-19T10:26:21.194Z,11.62
2022-10-19T10:27:25.395Z,11.67
2022-10-19T10:28:29.688Z,11.70
2022-10-19T10:29:33.964Z,11.81
2022-10-19T10:30:38.280Z,11.92
2022-10-19T10:31:42.574Z,11.92
2022-10-19T10:32:48.088Z,12.02
2022-10-19T10:34:57.303Z,11.93
2022-10-19T10:35:59.804Z,11.95
2022-10-19T10:37:04.167Z,11.86
2022-10-19T10:38:08.399Z,11.64
2022-10-19T10:39:12.730Z,11.41
2022-10-19T10:40:21.190Z,11.40
2022-10-19T10:41:21.337Z,11.45
2022-10-19T10:42:25.609Z,11.36
2022-10-19T10:43:29.890Z,11.37
2022-10-19T10:44:34.269Z,11.33
2022-10-19T10:45:38.533Z,11.27
2022-10-19T10:46:42.816Z,11.21
2022-10-19T10:47:47.091Z,11.19
2022-10-19T10:48:53.340Z,11.23
2022-10-19T10:49:55.693Z,11.16
2022-10-19T10:50:59.951Z,11.19
2022-10-19T10:52:04.189Z,11.26
2022-10-19T10:53:08.484Z,11.31
2022-10-19T10:54:12.683Z,11.41
2022-10-19T10:55:17.109Z,11.45
2022-10-19T10:56:21.331Z,11.52
2022-10-19T10:57:25.618Z,11.43
2022-10-19T10:58:30.439Z,11.48
2022-10-19T10:59:34.186Z,11.63
2022-10-19T11:00:38.486Z,11.68
2022-10-19T11:01:42.733Z,11.52
2022-10-19T11:02:46.981Z,11.32
2022-10-19T11:03:51.283Z,10.69
2022-10-19T11:04:55.459Z,10.75
2022-10-19T11:06:00.028Z,10.59
2022-10-19T11:07:04.122Z,10.81
2022-10-19T11:08:08.426Z,10.74
2022-10-19T11:09:12.786Z,10.86
2022-10-19T11:10:17.017Z,11.00
2022-10-19T11:11:21.344Z,11.17
2022-10-19T11:12:31.545Z,11.36
2022-10-19T11:13:31.973Z,11.55
2022-10-19T11:14:36.250Z,11.55
2022-10-19T11:15:40.523Z,11.45
2022-10-19T11:16:44.839Z,11.32
2022-10-19T11:17:49.100Z,11.22
2022-10-19T11:18:53.381Z,11.27
2022-10-19T11:19:57.637Z,11.37
2022-10-19T11:21:01.945Z,11.21
2022-10-19T11:22:06.242Z,11.16
2022-10-19T11:23:10.523Z,11.23
2022-10-19T11:24:14.794Z,11.17
2022-10-19T11:25:19.093Z,11.04
2022-10-19T11:26:23.403Z,10.95
2022-10-19T11:27:27.700Z,10.94
2022-10-19T11:28:31.939Z,10.90
2022-10-19T11:29:36.226Z,10.93
2022-10-19T11:30:42.480Z,10.96
2022-10-19T11:31:44.855Z,10.90
2022-10-19T11:32:49.186Z,10.99
2022-10-19T11:33:53.423Z,11.04
2022-10-19T11:34:57.733Z,10.96
2022-10-19T11:36:01.992Z,10.95
2022-10-19T11:37:06.261Z,11.03
2022-10-19T11:38:29.855Z,10.99
2022-10-19T11:39:14.812Z,10.71
2022-10-19T11:40:22.089Z,10.61
2022-10-19T11:41:23.410Z,10.41
2022-10-19T11:42:27.668Z,10.46
2022-10-19T11:43:31.967Z,10.53
2022-10-19T11:44:36.333Z,10.57
2022-10-19T11:45:40.579Z,10.76
2022-10-19T11:46:44.866Z,10.98
2022-10-19T11:47:49.169Z,10.68
2022-10-19T11:48:54.814Z,10.41
2022-10-19T11:49:57.768Z,10.52
2022-10-19T11:51:16.995Z,10.67
2022-10-19T11:52:06.357Z,10.74
2022-10-19T11:53:10.666Z,10.78
2022-10-19T11:54:15.083Z,10.68
2022-10-19T11:55:19.228Z,10.78
2022-10-19T11:56:34.782Z,10.86
2022-10-19T11:57:27.864Z,10.88
2022-10-19T11:58:34.848Z,10.63
2022-10-19T11:59:36.492Z,10.48
2022-10-19T12:00:40.947Z,10.48
2022-10-19T12:01:45.207Z,10.67
2022-10-19T12:02:49.382Z,10.93
2022-10-19T12:03:53.668Z,10.95
2022-10-19T12:04:58.117Z,10.97
2022-10-19T12:06:02.299Z,10.61
2022-10-19T12:07:06.602Z,10.61
2022-10-19T12:08:10.904Z,10.68
2022-10-19T12:09:15.311Z,10.50
2022-10-19T12:10:19.582Z,10.40
2022-10-19T12:11:23.881Z,10.53
2022-10-19T12:12:28.343Z,10.85
2022-10-19T12:13:32.557Z,10.59
2022-10-19T12:14:36.869Z,10.68
2022-10-19T12:15:41.149Z,10.61
2022-10-19T12:16:45.575Z,10.60
2022-10-19T12:17:49.794Z,10.16
2022-10-19T12:18:54.070Z,10.14
2022-10-19T12:19:58.403Z,10.38
2022-10-19T12:21:02.703Z,10.68
2022-10-19T12:22:07.042Z,10.95
2022-10-19T12:23:11.347Z,10.93
2022-10-19T12:24:15.687Z,10.89
2022-10-19T12:25:19.993Z,11.06
2022-10-19T12:26:24.340Z,11.15
2022-10-19T12:27:28.653Z,11.12
2022-10-19T12:28:32.947Z,11.52
2022-10-19T12:29:37.281Z,11.39
2022-10-19T12:30:41.580Z,11.59
2022-10-19T12:31:45.875Z,11.34
2022-10-19T12:32:53.529Z,11.31
2022-10-19T12:33:54.562Z,11.40
2022-10-19T12:34:58.818Z,11.36
2022-10-19T12:36:03.147Z,11.41
2022-10-19T12:37:07.577Z,11.63
2022-10-19T12:38:11.892Z,11.56
2022-10-19T12:39:16.255Z,11.17
2022-10-19T12:40:20.491Z,11.14
2022-10-19T12:41:24.781Z,11.17
2022-10-19T12:42:43.207Z,11.25
2022-10-19T12:43:46.500Z,11.20
2022-10-19T12:44:53.755Z,10.79
2022-10-19T12:45:55.262Z,10.78
2022-10-19T12:47:00.817Z,10.88
2022-10-19T12:48:03.788Z,10.81
2022-10-19T12:49:08.067Z,10.82
2022-10-19T12:50:12.435Z,10.77
2022-10-19T12:51:16.713Z,10.80
2022-10-19T12:52:21.030Z,10.75
2022-10-19T12:54:29.719Z,11.09
2022-10-19T12:55:34.023Z,11.06
2022-10-19T12:56:38.300Z,11.14
2022-10-19T12:57:42.693Z,11.00
2022-10-19T12:58:48.158Z,10.93
2022-10-19T12:59:51.207Z,10.95
2022-10-19T13:00:55.578Z,10.97
2022-10-19T13:01:59.883Z,11.00
2022-10-19T13:03:04.162Z,10.95
2022-10-19T13:04:08.475Z,11.05
2022-10-19T13:05:12.805Z,11.04
2022-10-19T13:06:17.092Z,11.08
2022-10-19T13:07:21.417Z,10.95
2022-10-19T13:08:25.778Z,11.07
2022-10-19T13:09:30.119Z,11.13
2022-10-19T13:10:34.397Z,11.14
2022-10-19T13:11:38.698Z,11.17
2022-10-19T13:12:43.078Z,11.02
2022-10-19T13:13:47.301Z,11.12
2022-10-19T13:14:51.702Z,10.93
2022-10-19T13:15:55.943Z,10.94
2022-10-19T13:17:00.287Z,10.96
2022-10-19T13:18:04.614Z,10.79
2022-10-19T13:19:08.898Z,10.79
2022-10-19T13:20:13.194Z,10.78
2022-10-19T13:21:17.499Z,10.86
2022-10-19T13:22:21.843Z,10.86
2022-10-19T13:23:26.173Z,10.89
2022-10-19T13:24:30.690Z,10.66
2022-10-19T13:25:34.824Z,10.44
2022-10-19T13:26:39.116Z,10.32
2022-10-19T13:27:43.420Z,10.30
2022-10-19T13:28:47.702Z,10.58
2022-10-19T13:29:52.000Z,10.69
2022-10-19T13:31:03.323Z,10.67
2022-10-19T13:32:00.633Z,10.75
2022-10-19T13:33:04.944Z,10.85
2022-10-19T13:34:09.241Z,10.76
2022-10-19T13:35:13.542Z,10.78
2022-10-19T13:36:17.851Z,10.81
2022-10-19T13:37:22.189Z,10.82
2022-10-19T13:38:26.639Z,10.88
2022-10-19T13:39:30.721Z,10.86
2022-10-19T13:40:35.091Z,10.82
2022-10-19T13:41:39.339Z,10.88
2022-10-19T13:42:43.760Z,10.71
2022-10-19T13:43:47.987Z,10.71
2022-10-19T13:44:52.237Z,10.77
2022-10-19T13:45:56.554Z,10.97
2022-10-19T13:47:00.864Z,11.02
2022-10-19T13:48:05.114Z,11.06
2022-10-19T13:49:09.437Z,10.94
2022-10-19T13:50:13.754Z,11.04
2022-10-19T13:51:18.097Z,11.06
2022-10-19T13:52:22.385Z,11.07
2022-10-19T13:53:26.796Z,11.03